Terminal Aerodrome Forecast
Issued by NWS Upton, NY

Home | Current Version | Previous Version | Text Only | Print | Product List | Glossary On
Versions: 1 2 3 4 5 6 7 8 9 10 11 12 13 14 15 16 17 18 19 20 21 22 23 24 25 26 27 28 29 30 31
455
FTUS41 KOKX 031154 CCA
TAFJFK
TAF COR
KJFK 031154Z 0312/0418 06008KT 5SM RA BR SCT006 BKN015 OVC040
     FM031600 05007KT 6SM -DZ BR BKN010 OVC035
     FM040000 VRB05KT P6SM BKN025
     FM040800 06007KT P6SM BKN015 OVC030
     FM041300 08009KT P6SM SCT020 BKN050=

USA.gov is the U.S. government's official web portal to all federal, state and local government web resources and services.